الصفحة الرئيسية
METAR-TAF:

METAR-TAF

مطار :

كابل, أفغانستان

مطار كابل الدولي

دائرة عرض: 34-38N, خط طول: 069-12E, ارتفاع: 1789 متر

مراقبة الطقس الحالي

تاريخ ووقت الإصدار 1ساعة و 0 دقيقة قبل الساعة 22:50UTC
ريح 5 عقدة من الشمال/الشمال الغربي
درجة الحرارة -1°درجة مئوية
الرطوبة 36%
ضغط 1015 hPa
الرؤية 10 كم أو أكثر
الغيوم لا تقل 1500 م ولا وجود لمزنة ركامية السحاب الأسود

METAR: OAKB 232250Z 33005KT CAVOK M01/M14 Q1015 NOSIG RMK A2997 BLU BLU

زمن: 04:20 (23:50 UTC)

توقعات

تاريخ ووقت الإصدار 45 دقيقة قبل الساعة 23:05UTC
التوقعات صالحة من24 الساعة 00 UTC إلى 24 الساعة 24 UTC
ريح 2 عقدةمن اتجاهات متغيرة
الرؤية: 7000 متر
مؤقت
من 24 الساعة 02 UTC إلى 24 الساعة 06 UTC
الرؤية: 2500 متر
أصبح
من 24 الساعة 13 UTC إلى 24 الساعة 15 UTC
الرؤية: 3000 متر
دخان
أصبح
من 24 الساعة 16 UTC إلى 24 الساعة 18 UTC
الرؤية: 1300 متر
أصبح
من 24 الساعة 21 UTC إلى 24 الساعة 23 UTC
الرؤية: 4000 متر

TAF: OAKB 232305Z 2400/2424 VRB02KT 7000 NSC TEMPO 2402/2406 2500 BECMG 2413/2415 3000 FU BECMG 2416/2418 1300 BECMG 2421/2423 4000

أرصاد الطقس والتوقعات من أكثر من 4000 مطار (تقارير الطقس للمطار METAR والتنبؤ بالطقس بالمطارTAF).

المحطات المتاحة هي النقط الصفراء والحمراء على الخريطة.

حرك المؤشر فوق النقطة لمعرفة اسم المحطة.

ثم انقر لمعرفة أرصاد وتوقعات الطقس.

لتغيير الخارطة: اضغط على الأزرار الخضراء مع رمز الصليب الأسود للتكبير. على الزر الأخضر مع شرطة للتصغير، أو على الأسهم الخضراء للخرائط المجاورة.


METAR-TAF: